createdAt,value
2022-12-29T00:02:17.904Z,100092.84
2022-12-29T00:04:47.793Z,100087.91
2022-12-29T00:07:14.369Z,100079.38
2022-12-29T00:09:41.018Z,100071.66
2022-12-29T00:12:08.717Z,100074.91
2022-12-29T00:14:54.022Z,100075.03
2022-12-29T00:17:20.661Z,100070.06
2022-12-29T00:20:05.993Z,100068.28
2022-12-29T00:22:52.388Z,100071.25
2022-12-29T00:25:37.464Z,100075.66
2022-12-29T00:28:22.635Z,100062.44
2022-12-29T00:31:07.633Z,100062.34
2022-12-29T00:33:53.442Z,100055.66
2022-12-29T00:36:26.102Z,100060.78
2022-12-29T00:39:12.808Z,100043.47
2022-12-29T00:41:58.232Z,100048.22
2022-12-29T00:44:24.815Z,100054.28
2022-12-29T00:46:51.292Z,100052.91
2022-12-29T00:49:33.203Z,100043.03
2022-12-29T00:52:10.672Z,100026.66
2022-12-29T00:54:38.200Z,100046.13
2022-12-29T00:57:05.765Z,100042.69
2022-12-29T00:59:32.245Z,100042.59
2022-12-29T01:01:59.130Z,100031.09
2022-12-29T01:04:26.932Z,100034.34
2022-12-29T01:06:53.772Z,100032.66
2022-12-29T01:09:39.170Z,100026.44
2022-12-29T01:12:06.636Z,100041.00
2022-12-29T01:14:33.967Z,100024.06
2022-12-29T01:17:00.482Z,100031.78
2022-12-29T01:19:27.062Z,100031.13
2022-12-29T01:21:53.536Z,100030.72
2022-12-29T01:24:20.766Z,100029.31
2022-12-29T01:26:47.706Z,100042.34
2022-12-29T01:29:14.446Z,100025.97
2022-12-29T01:31:40.975Z,100036.47
2022-12-29T01:34:10.306Z,100036.38
2022-12-29T01:36:36.988Z,100022.19
2022-12-29T01:39:03.626Z,100028.41
2022-12-29T01:41:30.193Z,100014.16
2022-12-29T01:43:57.658Z,100020.53
2022-12-29T01:46:27.070Z,100028.59
2022-12-29T01:49:00.125Z,100023.91
2022-12-29T01:51:27.113Z,100014.84
2022-12-29T01:53:55.301Z,100029.59
2022-12-29T01:56:22.406Z,100012.00
2022-12-29T01:58:51.250Z,100008.91
2022-12-29T02:01:20.079Z,100008.31
2022-12-29T02:03:47.023Z,100005.38
2022-12-29T02:06:17.290Z,100013.19
2022-12-29T02:08:47.227Z,99996.66
2022-12-29T02:11:14.134Z,99998.13
2022-12-29T02:13:40.702Z,99998.13
2022-12-29T02:16:32.019Z,99993.38
2022-12-29T02:18:58.478Z,99988.25
2022-12-29T02:21:35.835Z,99991.38
2022-12-29T02:24:25.551Z,99986.75
2022-12-29T02:27:12.233Z,99987.78
2022-12-29T02:29:51.573Z,99982.47
2022-12-29T02:32:18.233Z,99985.84
2022-12-29T02:35:03.750Z,99982.69
2022-12-29T02:37:48.740Z,99969.47
2022-12-29T02:40:15.168Z,99987.19
2022-12-29T02:42:41.550Z,99977.41
2022-12-29T02:45:26.915Z,99989.78
2022-12-29T02:48:05.854Z,99979.81
2022-12-29T02:50:44.365Z,99981.50
2022-12-29T02:53:14.186Z,99975.53
2022-12-29T02:55:42.223Z,99986.81
2022-12-29T02:58:17.639Z,99972.72
2022-12-29T03:00:56.342Z,99980.84
2022-12-29T03:03:41.373Z,99970.94
2022-12-29T03:06:07.978Z,99965.75
2022-12-29T03:08:56.126Z,99958.63
2022-12-29T03:11:45.724Z,99958.44
2022-12-29T03:14:30.758Z,99950.19
2022-12-29T03:17:02.278Z,99952.47
2022-12-29T03:19:34.013Z,99940.19
2022-12-29T03:22:22.651Z,99941.72
2022-12-29T03:24:51.869Z,99938.00
2022-12-29T03:27:20.877Z,99938.28
2022-12-29T03:29:53.391Z,99939.34
2022-12-29T03:32:21.275Z,99939.03
2022-12-29T03:34:49.251Z,99941.22
2022-12-29T03:37:17.784Z,99934.91
2022-12-29T03:39:45.271Z,99938.75
2022-12-29T03:42:17.314Z,99930.56
2022-12-29T03:44:45.685Z,99937.84
2022-12-29T03:47:13.066Z,99939.81
2022-12-29T03:49:39.766Z,99947.13
2022-12-29T03:52:06.373Z,99945.66
2022-12-29T03:54:33.820Z,99944.50
2022-12-29T03:57:00.706Z,99948.47
2022-12-29T03:59:27.137Z,99948.88
2022-12-29T04:01:53.640Z,99942.28
2022-12-29T04:04:20.227Z,99930.50
2022-12-29T04:06:46.659Z,99927.91
2022-12-29T04:09:13.179Z,99937.50
2022-12-29T04:11:39.667Z,99928.31
2022-12-29T04:14:06.104Z,99929.06
2022-12-29T04:16:32.626Z,99931.28
2022-12-29T04:18:59.114Z,99934.28
2022-12-29T04:21:25.551Z,99937.94
2022-12-29T04:23:51.990Z,99940.88
2022-12-29T04:26:18.505Z,99935.31
2022-12-29T04:28:45.008Z,99926.94
2022-12-29T04:31:11.669Z,99930.22
2022-12-29T04:33:38.190Z,99920.59
2022-12-29T04:36:04.759Z,99917.53
2022-12-29T04:38:31.456Z,99925.91
2022-12-29T04:41:00.580Z,99925.09
2022-12-29T04:43:27.138Z,99927.28
2022-12-29T04:45:53.608Z,99931.53
2022-12-29T04:48:20.129Z,99924.75
2022-12-29T04:50:48.646Z,99915.97
2022-12-29T04:53:15.507Z,99916.19
2022-12-29T04:55:42.013Z,99912.09
2022-12-29T04:58:08.622Z,99903.66
2022-12-29T05:00:35.071Z,99919.91
2022-12-29T05:03:02.438Z,99912.41
2022-12-29T05:05:29.094Z,99919.91
2022-12-29T05:07:55.529Z,99900.28
2022-12-29T05:10:22.025Z,99902.47
2022-12-29T05:12:48.579Z,99899.88
2022-12-29T05:15:15.023Z,99896.75
2022-12-29T05:17:41.540Z,99896.41
2022-12-29T05:20:08.355Z,99897.00
2022-12-29T05:22:34.867Z,99889.06
2022-12-29T05:25:01.333Z,99884.69
2022-12-29T05:27:27.861Z,99870.69
2022-12-29T05:29:54.482Z,99876.47
2022-12-29T05:32:21.021Z,99875.16
2022-12-29T05:34:47.452Z,99872.94
2022-12-29T05:37:13.959Z,99871.88
2022-12-29T05:39:40.715Z,99867.88
2022-12-29T05:42:07.168Z,99867.28
2022-12-29T05:44:34.218Z,99866.09
2022-12-29T05:47:00.897Z,99867.38
2022-12-29T05:49:27.372Z,99873.00
2022-12-29T05:51:53.865Z,99865.53
2022-12-29T05:54:20.330Z,99868.00
2022-12-29T05:56:46.833Z,99859.94
2022-12-29T05:59:21.503Z,99853.28
2022-12-29T06:01:48.401Z,99859.59
2022-12-29T06:04:15.246Z,99860.47
2022-12-29T06:06:45.068Z,99860.44
2022-12-29T06:09:12.102Z,99862.38
2022-12-29T06:11:46.452Z,99861.38
2022-12-29T06:14:13.145Z,99861.63
2022-12-29T06:16:40.229Z,99862.31
2022-12-29T06:19:07.503Z,99859.97
2022-12-29T06:21:38.056Z,99858.41
2022-12-29T06:24:05.474Z,99859.38
2022-12-29T06:26:32.242Z,99869.47
2022-12-29T06:28:59.345Z,99867.94
2022-12-29T06:31:26.064Z,99870.28
2022-12-29T06:33:53.077Z,99864.00
2022-12-29T06:36:22.609Z,99857.00
2022-12-29T06:38:49.415Z,99860.56
2022-12-29T06:41:18.585Z,99870.91
2022-12-29T06:43:45.611Z,99863.78
2022-12-29T06:46:12.316Z,99868.41
2022-12-29T06:48:38.987Z,99864.56
2022-12-29T06:51:05.875Z,99876.22
2022-12-29T06:53:39.658Z,99877.78
2022-12-29T06:56:06.522Z,99884.28
2022-12-29T06:58:33.098Z,99890.47
2022-12-29T07:01:11.156Z,99886.88
2022-12-29T07:03:38.014Z,99883.56
2022-12-29T07:06:08.064Z,99887.47
2022-12-29T07:08:36.082Z,99886.75
2022-12-29T07:11:07.317Z,99887.56
2022-12-29T07:13:34.305Z,99895.28
2022-12-29T07:16:01.347Z,99892.88
2022-12-29T07:18:30.733Z,99890.50
2022-12-29T07:21:02.842Z,99892.06
2022-12-29T07:23:39.727Z,99901.63
2022-12-29T07:26:12.611Z,99898.66
2022-12-29T07:28:43.236Z,99892.97
2022-12-29T07:31:30.702Z,99888.22
2022-12-29T07:34:00.163Z,99886.09
2022-12-29T07:36:32.374Z,99884.56
2022-12-29T07:39:04.347Z,99890.50
2022-12-29T07:41:35.787Z,99893.28
2022-12-29T07:44:05.096Z,99881.38
2022-12-29T07:46:55.694Z,99879.84
2022-12-29T07:49:24.170Z,99898.59
2022-12-29T07:51:51.263Z,99891.41
2022-12-29T07:54:20.983Z,99884.75
2022-12-29T07:56:50.932Z,99895.09
2022-12-29T07:59:18.212Z,99889.16
2022-12-29T08:02:06.872Z,99885.25
2022-12-29T08:04:39.461Z,99892.97
2022-12-29T08:07:10.703Z,99877.41
2022-12-29T08:09:37.339Z,99885.84
2022-12-29T08:12:11.246Z,99874.41
2022-12-29T08:14:40.979Z,99869.22
2022-12-29T08:17:08.986Z,99874.19
2022-12-29T08:19:38.856Z,99881.59
2022-12-29T08:22:08.821Z,99888.84
2022-12-29T08:24:35.886Z,99891.56
2022-12-29T08:27:14.633Z,99879.31
2022-12-29T08:29:46.719Z,99873.75
2022-12-29T08:32:16.841Z,99884.22
2022-12-29T08:34:46.754Z,99881.59
2022-12-29T08:37:16.201Z,99875.88
2022-12-29T08:39:43.011Z,99875.78
2022-12-29T08:42:12.328Z,99876.59
2022-12-29T08:44:40.701Z,99884.31
2022-12-29T08:47:07.527Z,99888.63
2022-12-29T08:49:37.096Z,99878.31
2022-12-29T08:52:04.266Z,99883.88
2022-12-29T08:54:34.861Z,99883.75
2022-12-29T08:57:03.736Z,99879.13
2022-12-29T08:59:30.454Z,99879.34
2022-12-29T09:01:59.905Z,99871.63
2022-12-29T09:04:29.407Z,99872.56
2022-12-29T09:06:56.561Z,99874.59
2022-12-29T09:09:28.698Z,99866.28
2022-12-29T09:12:03.589Z,99876.72
2022-12-29T09:14:32.855Z,99873.28
2022-12-29T09:17:21.398Z,99875.78
2022-12-29T09:19:48.470Z,99877.59
2022-12-29T09:22:15.455Z,99870.84
2022-12-29T09:24:48.017Z,99875.19
2022-12-29T09:27:14.843Z,99864.41
2022-12-29T09:29:43.878Z,99868.31
2022-12-29T09:32:18.687Z,99860.78
2022-12-29T09:34:46.245Z,99859.59
2022-12-29T09:37:15.448Z,99855.69
2022-12-29T09:39:50.529Z,99849.25
2022-12-29T09:42:32.987Z,99848.00
2022-12-29T09:45:24.184Z,99836.66
2022-12-29T09:47:57.071Z,99837.34
2022-12-29T09:50:32.924Z,99850.53
2022-12-29T09:53:18.640Z,99850.47
2022-12-29T09:55:50.070Z,99850.19
2022-12-29T09:58:35.128Z,99856.66
2022-12-29T10:01:04.964Z,99844.50
2022-12-29T10:04:13.864Z,99853.72
2022-12-29T10:07:33.908Z,99858.19
2022-12-29T10:13:36.366Z,99856.16
2022-12-29T10:16:10.175Z,99850.78
2022-12-29T10:18:52.910Z,99858.38
2022-12-29T10:21:26.593Z,99860.13
2022-12-29T10:24:06.957Z,99844.97
2022-12-29T10:26:53.820Z,99852.81
2022-12-29T10:29:45.824Z,99844.91
2022-12-29T10:32:36.567Z,99843.41
2022-12-29T10:35:25.150Z,99857.50
2022-12-29T10:38:34.828Z,99841.97
2022-12-29T10:41:09.721Z,99847.00
2022-12-29T10:43:52.174Z,99854.31
2022-12-29T10:46:21.924Z,99842.25
2022-12-29T10:48:49.028Z,99840.00
2022-12-29T10:51:36.902Z,99842.44
2022-12-29T10:54:13.374Z,99848.91
2022-12-29T10:57:01.932Z,99848.81
2022-12-29T10:59:40.084Z,99838.19
2022-12-29T11:02:33.551Z,99847.09
2022-12-29T11:05:04.341Z,99852.34
2022-12-29T11:07:31.723Z,99844.34
2022-12-29T11:10:17.514Z,99849.47
2022-12-29T11:13:09.353Z,99853.50
2022-12-29T11:15:42.339Z,99849.50
2022-12-29T11:18:30.358Z,99845.97
2022-12-29T11:21:01.693Z,99848.47
2022-12-29T11:23:45.849Z,99856.78
2022-12-29T11:26:12.636Z,99848.09
2022-12-29T11:28:40.581Z,99863.50
2022-12-29T11:31:23.714Z,99862.53
2022-12-29T11:33:55.938Z,99858.56
2022-12-29T11:36:24.910Z,99864.34
2022-12-29T11:39:01.003Z,99857.25
2022-12-29T11:41:34.369Z,99853.78
2022-12-29T11:44:03.527Z,99847.97
2022-12-29T11:46:39.755Z,99852.75
2022-12-29T11:49:07.240Z,99865.88
2022-12-29T11:51:51.072Z,99860.41
2022-12-29T11:54:25.179Z,99872.69
2022-12-29T11:57:01.635Z,99877.31
2022-12-29T11:59:33.410Z,99869.47
2022-12-29T12:02:10.415Z,99873.28
2022-12-29T12:04:46.967Z,99870.81
2022-12-29T12:07:22.754Z,99866.63
2022-12-29T12:10:07.034Z,99861.03
2022-12-29T12:12:40.869Z,99868.56
2022-12-29T12:15:20.219Z,99859.16
2022-12-29T12:17:56.099Z,99868.66
2022-12-29T12:20:56.334Z,99862.63
2022-12-29T12:23:49.080Z,99861.06
2022-12-29T12:26:26.108Z,99861.63
2022-12-29T12:29:26.415Z,99855.84
2022-12-29T12:34:26.265Z,99851.72
2022-12-29T12:37:14.695Z,99844.63
2022-12-29T12:39:44.505Z,99848.78
2022-12-29T12:42:29.924Z,99853.03
2022-12-29T12:45:43.610Z,99853.75
2022-12-29T12:48:26.797Z,99843.75
2022-12-29T12:51:12.538Z,99851.00
2022-12-29T12:54:06.736Z,99834.38
2022-12-29T12:56:33.731Z,99848.22
2022-12-29T12:59:19.286Z,99852.50
2022-12-29T13:02:22.270Z,99845.00
2022-12-29T13:05:09.714Z,99847.38
2022-12-29T13:07:56.118Z,99854.31
2022-12-29T13:10:59.895Z,99867.09
2022-12-29T13:13:40.523Z,99863.41
2022-12-29T13:16:22.392Z,99865.69
2022-12-29T13:18:59.315Z,99862.56
2022-12-29T13:21:53.675Z,99871.13
2022-12-29T13:24:53.993Z,99868.03
2022-12-29T13:27:47.490Z,99868.25
2022-12-29T13:30:15.227Z,99870.59
2022-12-29T13:33:06.895Z,99873.09
2022-12-29T13:35:55.949Z,99871.16
2022-12-29T13:38:26.040Z,99869.16
2022-12-29T13:41:09.950Z,99865.59
2022-12-29T13:43:49.734Z,99863.66
2022-12-29T13:46:35.590Z,99865.50
2022-12-29T13:49:08.847Z,99866.97
2022-12-29T13:51:36.736Z,99877.63
2022-12-29T13:54:28.097Z,99867.69
2022-12-29T13:57:24.105Z,99867.22
2022-12-29T14:00:03.295Z,99870.72
2022-12-29T14:02:42.710Z,99872.22
2022-12-29T14:05:20.330Z,99879.69
2022-12-29T14:07:57.061Z,99883.03
2022-12-29T14:10:34.083Z,99873.91
2022-12-29T14:13:07.553Z,99886.81
2022-12-29T14:15:34.584Z,99873.97
2022-12-29T14:18:23.681Z,99876.09
2022-12-29T14:21:02.079Z,99874.91
2022-12-29T14:23:45.019Z,99882.13
2022-12-29T14:26:14.346Z,99883.50
2022-12-29T14:28:47.861Z,99885.19
2022-12-29T14:31:24.036Z,99887.81
2022-12-29T14:34:09.856Z,99890.03
2022-12-29T14:36:40.980Z,99898.91
2022-12-29T14:39:26.899Z,99907.91
2022-12-29T14:42:25.785Z,99903.72
2022-12-29T14:45:12.410Z,99906.66
2022-12-29T14:47:42.533Z,99921.06
2022-12-29T14:50:25.329Z,99918.22
2022-12-29T14:53:02.530Z,99920.63
2022-12-29T14:55:29.881Z,99920.00
2022-12-29T14:58:03.271Z,99920.56
2022-12-29T15:00:34.977Z,99922.44
2022-12-29T15:03:08.424Z,99925.66
2022-12-29T15:08:41.019Z,99946.72
2022-12-29T15:11:23.433Z,99951.00
2022-12-29T15:14:00.809Z,99962.75
2022-12-29T15:16:36.153Z,99961.63
2022-12-29T15:19:22.446Z,99961.81
2022-12-29T15:21:49.016Z,99970.72
2022-12-29T15:24:21.352Z,99969.03
2022-12-29T15:26:52.364Z,99975.19
2022-12-29T15:29:38.880Z,99976.34
2022-12-29T15:32:18.328Z,99967.47
2022-12-29T15:34:49.702Z,99972.72
2022-12-29T15:37:22.742Z,99979.94
2022-12-29T15:39:49.687Z,99971.16
2022-12-29T15:42:24.581Z,99986.47
2022-12-29T15:44:57.996Z,99990.13
2022-12-29T15:47:31.211Z,99988.09
2022-12-29T15:50:02.830Z,99986.19
2022-12-29T15:52:30.688Z,99992.75
2022-12-29T15:54:59.867Z,100001.81
2022-12-29T15:57:41.222Z,100004.69
2022-12-29T16:00:28.179Z,100010.75
2022-12-29T16:02:57.154Z,100017.72
2022-12-29T16:05:23.971Z,100016.69
2022-12-29T16:07:56.311Z,100013.13
2022-12-29T16:10:41.182Z,100016.91
2022-12-29T16:13:20.072Z,100023.81
2022-12-29T16:15:53.576Z,100023.13
2022-12-29T16:18:24.692Z,100028.22
2022-12-29T16:20:51.546Z,100031.81
2022-12-29T16:23:21.483Z,100024.00
2022-12-29T16:25:47.996Z,100028.88
2022-12-29T16:28:22.491Z,100033.44
2022-12-29T16:30:58.232Z,100039.09
2022-12-29T16:33:38.555Z,100040.66
2022-12-29T16:36:23.679Z,100026.09
2022-12-29T16:38:50.192Z,100040.38
2022-12-29T16:41:30.201Z,100048.81
2022-12-29T16:44:14.519Z,100041.75
2022-12-29T16:46:45.786Z,100057.09
2022-12-29T16:49:23.431Z,100052.72
2022-12-29T16:51:51.466Z,100050.19
2022-12-29T16:54:22.917Z,100056.28
2022-12-29T16:56:52.597Z,100053.13
2022-12-29T16:59:30.386Z,100050.22
2022-12-29T17:01:57.694Z,100053.03
2022-12-29T17:04:24.410Z,100061.16
2022-12-29T17:06:51.054Z,100067.44
2022-12-29T17:09:21.153Z,100071.50
2022-12-29T17:12:03.047Z,100080.06
2022-12-29T17:14:51.738Z,100082.19
2022-12-29T17:17:35.574Z,100067.66
2022-12-29T17:20:06.092Z,100090.91
2022-12-29T17:22:32.847Z,100082.38
2022-12-29T17:25:00.437Z,100088.31
2022-12-29T17:27:36.503Z,100084.47
2022-12-29T17:30:05.809Z,100080.41
2022-12-29T17:32:33.172Z,100084.06
2022-12-29T17:34:59.869Z,100101.81
2022-12-29T17:37:32.771Z,100088.22
2022-12-29T17:39:59.318Z,100092.63
2022-12-29T17:42:26.122Z,100090.81
2022-12-29T17:44:52.896Z,100084.34
2022-12-29T17:47:19.449Z,100083.19
2022-12-29T17:49:46.414Z,100070.59
2022-12-29T17:52:16.889Z,100071.31
2022-12-29T17:54:46.910Z,100078.94
2022-12-29T17:57:14.706Z,100086.75
2022-12-29T17:59:41.452Z,100082.25
2022-12-29T18:02:23.696Z,100092.06
2022-12-29T18:04:50.390Z,100083.94
2022-12-29T18:07:17.036Z,100085.50
2022-12-29T18:09:43.703Z,100091.66
2022-12-29T18:12:25.986Z,100094.16
2022-12-29T18:14:53.329Z,100091.44
2022-12-29T18:17:20.050Z,100098.81
2022-12-29T18:19:46.665Z,100100.16
2022-12-29T18:22:13.186Z,100108.06
2022-12-29T18:24:39.840Z,100109.38
2022-12-29T18:27:12.097Z,100109.34
2022-12-29T18:29:38.885Z,100107.78
2022-12-29T18:32:07.682Z,100118.34
2022-12-29T18:34:34.277Z,100113.00
2022-12-29T18:37:03.115Z,100111.97
2022-12-29T18:39:32.421Z,100112.28
2022-12-29T18:41:58.987Z,100108.13
2022-12-29T18:44:25.802Z,100108.56
2022-12-29T18:46:52.407Z,100112.72
2022-12-29T18:49:19.866Z,100117.00
2022-12-29T18:51:46.417Z,100119.22
2022-12-29T18:54:32.268Z,100113.22
2022-12-29T18:56:59.518Z,100109.91
2022-12-29T18:59:31.276Z,100120.06
2022-12-29T19:01:57.892Z,100124.13
2022-12-29T19:04:24.441Z,100119.31
2022-12-29T19:06:51.460Z,100121.75
2022-12-29T19:09:18.782Z,100128.94
2022-12-29T19:11:45.362Z,100136.66
2022-12-29T19:14:17.573Z,100139.66
2022-12-29T19:16:44.375Z,100133.81
2022-12-29T19:19:16.578Z,100130.84
2022-12-29T19:21:43.256Z,100131.41
2022-12-29T19:24:09.945Z,100130.38
2022-12-29T19:26:38.554Z,100137.00
2022-12-29T19:29:06.452Z,100146.41
2022-12-29T19:31:33.591Z,100143.59
2022-12-29T19:34:03.526Z,100141.19
2022-12-29T19:36:33.067Z,100147.06
2022-12-29T19:39:08.957Z,100150.38
2022-12-29T19:41:38.083Z,100144.25
2022-12-29T19:44:07.572Z,100142.31
2022-12-29T19:46:34.441Z,100150.19
2022-12-29T19:49:01.618Z,100151.09
2022-12-29T19:51:28.217Z,100141.44
2022-12-29T19:54:02.121Z,100153.44
2022-12-29T19:56:32.085Z,100150.75
2022-12-29T19:59:04.818Z,100150.25
2022-12-29T20:01:32.090Z,100153.31
2022-12-29T20:03:58.732Z,100148.84
2022-12-29T20:06:25.602Z,100146.59
2022-12-29T20:08:55.965Z,100151.69
2022-12-29T20:11:24.045Z,100154.31
2022-12-29T20:13:53.029Z,100152.84
2022-12-29T20:16:20.608Z,100156.81
2022-12-29T20:18:52.698Z,100148.34
2022-12-29T20:21:22.638Z,100155.16
2022-12-29T20:23:50.356Z,100151.13
2022-12-29T20:26:19.644Z,100156.22
2022-12-29T20:28:50.424Z,100159.81
2022-12-29T20:31:17.386Z,100150.25
2022-12-29T20:33:48.180Z,100161.97
2022-12-29T20:36:17.152Z,100165.31
2022-12-29T20:38:49.717Z,100166.66
2022-12-29T20:41:24.041Z,100166.16
2022-12-29T20:43:51.350Z,100161.41
2022-12-29T20:46:21.936Z,100166.16
2022-12-29T20:48:54.329Z,100172.72
2022-12-29T20:51:23.581Z,100153.50
2022-12-29T20:54:00.834Z,100157.88
2022-12-29T20:56:29.997Z,100156.53
2022-12-29T20:59:26.883Z,100160.25
2022-12-29T21:01:53.142Z,100164.13
2022-12-29T21:04:20.468Z,100166.25
2022-12-29T21:06:50.243Z,100160.59
2022-12-29T21:09:16.953Z,100159.16
2022-12-29T21:11:54.042Z,100161.47
2022-12-29T21:14:22.739Z,100158.22
2022-12-29T21:16:49.929Z,100166.25
2022-12-29T21:19:16.478Z,100163.09
2022-12-29T21:21:45.297Z,100164.28
2022-12-29T21:24:17.201Z,100158.72
2022-12-29T21:26:56.485Z,100163.81
2022-12-29T21:29:23.061Z,100169.56
2022-12-29T21:31:50.171Z,100179.47
2022-12-29T21:34:20.292Z,100185.06
2022-12-29T21:36:47.635Z,100186.28
2022-12-29T21:39:23.484Z,100187.97
2022-12-29T21:41:52.782Z,100184.28
2022-12-29T21:44:40.793Z,100188.50
2022-12-29T21:47:08.114Z,100192.97
2022-12-29T21:49:49.486Z,100185.09
2022-12-29T21:52:18.085Z,100192.47
2022-12-29T21:55:10.916Z,100199.34
2022-12-29T21:57:59.006Z,100194.16
2022-12-29T22:01:10.169Z,100198.63
2022-12-29T22:04:00.320Z,100199.84
2022-12-29T22:06:46.212Z,100197.53
2022-12-29T22:09:36.191Z,100205.13
2022-12-29T22:12:25.482Z,100203.50
2022-12-29T22:15:01.777Z,100200.69
2022-12-29T22:17:35.181Z,100198.53
2022-12-29T22:20:10.723Z,100202.44
2022-12-29T22:22:37.917Z,100199.75
2022-12-29T22:25:09.223Z,100204.31
2022-12-29T22:27:36.215Z,100194.66
2022-12-29T22:30:06.683Z,100195.66
2022-12-29T22:32:36.258Z,100200.59
2022-12-29T22:35:13.935Z,100206.06
2022-12-29T22:37:42.234Z,100200.03
2022-12-29T22:40:12.645Z,100204.09
2022-12-29T22:42:39.739Z,100212.69
2022-12-29T22:45:09.344Z,100209.22
2022-12-29T22:47:36.335Z,100211.56
2022-12-29T22:50:06.398Z,100223.84
2022-12-29T22:52:36.428Z,100222.53
2022-12-29T22:57:51.075Z,100240.19
2022-12-29T23:00:20.838Z,100240.75
2022-12-29T23:02:53.506Z,100233.31
2022-12-29T23:05:20.660Z,100243.00
2022-12-29T23:07:54.490Z,100254.91
2022-12-29T23:10:21.879Z,100252.97
2022-12-29T23:12:57.313Z,100250.72
2022-12-29T23:15:27.343Z,100255.19
2022-12-29T23:17:55.868Z,100252.66
2022-12-29T23:20:25.144Z,100256.69
2022-12-29T23:22:54.536Z,100267.94
2022-12-29T23:25:21.439Z,100255.81
2022-12-29T23:27:53.000Z,100260.22
2022-12-29T23:30:22.859Z,100264.69
2022-12-29T23:32:52.585Z,100270.63
2022-12-29T23:35:21.895Z,100269.31
2022-12-29T23:37:54.212Z,100269.25
2022-12-29T23:40:24.861Z,100274.53
2022-12-29T23:42:52.026Z,100275.94
2022-12-29T23:45:22.069Z,100285.03
2022-12-29T23:47:55.091Z,100288.38
2022-12-29T23:50:21.916Z,100286.06
2022-12-29T23:52:54.029Z,100286.59
2022-12-29T23:55:23.195Z,100293.31
2022-12-29T23:57:53.343Z,100290.97
